createdAt,value
2019-05-09T00:02:33.547Z,8.33
2019-05-09T00:05:03.620Z,8.21
2019-05-09T00:07:33.717Z,8.21
2019-05-09T00:10:04.085Z,8.21
2019-05-09T00:12:33.509Z,8.10
2019-05-09T00:15:04.533Z,7.96
2019-05-09T00:17:33.865Z,7.78
2019-05-09T00:20:09.639Z,7.76
2019-05-09T00:22:38.549Z,7.92
2019-05-09T00:25:07.427Z,8.09
2019-05-09T00:27:36.268Z,8.21
2019-05-09T00:30:06.336Z,8.05
2019-05-09T00:32:39.900Z,7.98
2019-05-09T00:35:33.990Z,7.79
2019-05-09T00:38:07.757Z,7.66
2019-05-09T00:40:36.574Z,7.90
2019-05-09T00:43:05.436Z,7.72
2019-05-09T00:45:54.194Z,7.78
2019-05-09T00:48:27.291Z,7.72
2019-05-09T00:50:56.288Z,7.65
2019-05-09T00:53:25.283Z,7.53
2019-05-09T00:55:54.315Z,7.45
2019-05-09T00:58:24.137Z,7.38
2019-05-09T01:00:53.385Z,7.35
2019-05-09T01:03:23.429Z,7.30
2019-05-09T01:05:54.254Z,7.22
2019-05-09T01:08:24.169Z,7.18
2019-05-09T01:11:08.248Z,7.18
2019-05-09T01:13:23.964Z,7.29
2019-05-09T01:15:53.369Z,7.37
2019-05-09T01:18:23.708Z,7.55
2019-05-09T01:20:53.182Z,7.71
2019-05-09T01:23:23.432Z,7.74
2019-05-09T01:25:53.010Z,7.75
2019-05-09T01:28:23.231Z,7.62
2019-05-09T01:30:53.195Z,7.58
2019-05-09T01:33:50.454Z,7.68
2019-05-09T01:36:19.448Z,7.59
2019-05-09T01:38:48.292Z,7.69
2019-05-09T01:41:29.761Z,7.72
2019-05-09T01:43:48.587Z,7.63
2019-05-09T01:46:17.591Z,7.65
2019-05-09T01:48:46.476Z,7.62
2019-05-09T01:51:15.411Z,7.65
2019-05-09T01:53:49.909Z,7.51
2019-05-09T01:56:18.844Z,7.56
2019-05-09T01:58:47.872Z,7.49
2019-05-09T02:01:16.841Z,7.41
2019-05-09T02:03:45.641Z,7.35
2019-05-09T02:06:15.140Z,7.30
2019-05-09T02:08:43.986Z,7.33
2019-05-09T02:11:13.463Z,7.44
2019-05-09T02:13:44.209Z,7.50
2019-05-09T02:16:30.698Z,7.54
2019-05-09T02:19:09.176Z,7.42
2019-05-09T02:21:38.102Z,7.41
2019-05-09T02:24:06.957Z,7.41
2019-05-09T02:26:35.831Z,7.41
2019-05-09T02:29:04.844Z,7.36
2019-05-09T02:31:35.413Z,7.23
2019-05-09T02:34:05.092Z,7.18
2019-05-09T02:36:34.158Z,7.17
2019-05-09T02:39:03.892Z,7.18
2019-05-09T02:41:32.797Z,7.19
2019-05-09T02:44:01.704Z,7.18
2019-05-09T02:46:49.686Z,7.18
2019-05-09T02:49:19.282Z,7.20
2019-05-09T02:51:48.891Z,7.15
2019-05-09T02:54:19.011Z,7.13
2019-05-09T02:56:49.234Z,7.16
2019-05-09T02:59:40.157Z,7.14
2019-05-09T03:02:19.360Z,7.19
2019-05-09T03:04:48.895Z,7.19
2019-05-09T03:07:19.777Z,7.14
2019-05-09T03:09:48.712Z,7.01
2019-05-09T03:12:30.416Z,6.93
2019-05-09T03:14:48.814Z,6.87
2019-05-09T03:17:18.782Z,6.84
2019-05-09T03:19:48.785Z,6.67
2019-05-09T03:22:19.992Z,6.67
2019-05-09T03:24:48.920Z,6.61
2019-05-09T03:27:25.115Z,6.78
2019-05-09T03:29:58.956Z,6.90
2019-05-09T03:32:29.639Z,7.03
2019-05-09T03:34:58.101Z,7.02
2019-05-09T03:37:27.852Z,7.09
2019-05-09T03:39:58.125Z,7.13
2019-05-09T03:42:38.170Z,7.17
2019-05-09T03:44:58.191Z,7.17
2019-05-09T03:47:37.648Z,7.18
2019-05-09T03:50:17.735Z,7.22
2019-05-09T03:52:47.775Z,7.25
2019-05-09T03:55:21.043Z,7.36
2019-05-09T03:57:58.055Z,7.41
2019-05-09T04:00:28.313Z,7.46
2019-05-09T04:02:58.089Z,7.54
2019-05-09T04:05:27.401Z,7.62
2019-05-09T04:08:00.064Z,7.72
2019-05-09T04:10:28.911Z,7.71
2019-05-09T04:12:59.630Z,7.70
2019-05-09T04:15:28.248Z,7.68
2019-05-09T04:17:57.906Z,7.88
2019-05-09T04:20:27.735Z,7.76
2019-05-09T04:22:59.305Z,7.91
2019-05-09T04:25:30.990Z,8.04
2019-05-09T04:28:00.002Z,8.11
2019-05-09T04:30:28.960Z,8.18
2019-05-09T04:32:58.241Z,8.37
2019-05-09T04:35:27.981Z,8.37
2019-05-09T04:37:58.414Z,8.67
2019-05-09T04:40:31.729Z,8.70
2019-05-09T04:43:10.867Z,8.76
2019-05-09T04:45:38.796Z,8.80
2019-05-09T04:48:13.130Z,8.84
2019-05-09T04:50:40.813Z,8.89
2019-05-09T04:53:09.598Z,8.94
2019-05-09T04:55:39.368Z,8.93
2019-05-09T04:58:09.297Z,8.97
2019-05-09T05:01:07.291Z,9.02
2019-05-09T05:03:37.614Z,9.02
2019-05-09T05:06:07.687Z,9.08
2019-05-09T05:08:37.544Z,9.14
2019-05-09T05:11:07.467Z,9.20
2019-05-09T05:13:38.388Z,9.51
2019-05-09T05:16:08.364Z,9.51
2019-05-09T05:18:37.526Z,9.76
2019-05-09T05:21:07.837Z,9.85
2019-05-09T05:23:43.070Z,9.87
2019-05-09T05:26:12.020Z,9.81
2019-05-09T05:28:40.838Z,9.68
2019-05-09T05:31:09.757Z,9.61
2019-05-09T05:33:51.179Z,9.63
2019-05-09T05:36:18.265Z,9.89
2019-05-09T05:38:47.943Z,10.14
2019-05-09T05:41:18.296Z,10.13
2019-05-09T05:43:47.988Z,10.38
2019-05-09T05:46:29.942Z,10.32
2019-05-09T05:48:58.907Z,10.45
2019-05-09T05:51:27.867Z,10.43
2019-05-09T05:53:57.484Z,10.48
2019-05-09T05:56:27.971Z,10.51
2019-05-09T05:58:58.019Z,10.69
2019-05-09T06:01:27.832Z,10.72
2019-05-09T06:03:58.611Z,10.78
2019-05-09T06:06:28.046Z,10.79
2019-05-09T06:08:57.888Z,10.77
2019-05-09T06:11:28.052Z,11.01
2019-05-09T06:14:04.287Z,11.31
2019-05-09T06:16:28.217Z,11.45
2019-05-09T06:18:58.599Z,11.42
2019-05-09T06:21:28.368Z,11.57
2019-05-09T06:23:58.437Z,11.56
2019-05-09T06:26:29.223Z,11.25
2019-05-09T06:28:58.458Z,11.08
2019-05-09T06:31:28.452Z,11.04
2019-05-09T06:33:57.957Z,10.99
2019-05-09T06:36:28.308Z,10.82
2019-05-09T06:38:58.801Z,10.68
2019-05-09T06:41:28.673Z,10.75
2019-05-09T06:44:16.212Z,10.93
2019-05-09T06:46:39.584Z,11.29
2019-05-09T06:49:24.355Z,11.38
2019-05-09T06:51:43.040Z,11.53
2019-05-09T06:54:12.256Z,11.47
2019-05-09T06:56:41.037Z,11.32
2019-05-09T06:59:10.031Z,11.42
2019-05-09T07:01:48.043Z,11.42
2019-05-09T07:04:27.772Z,11.55
2019-05-09T07:07:03.788Z,11.56
2019-05-09T07:09:58.564Z,11.57
2019-05-09T07:12:28.019Z,11.54
2019-05-09T07:14:58.085Z,11.23
2019-05-09T07:17:31.768Z,11.07
2019-05-09T07:19:58.901Z,10.82
2019-05-09T07:22:35.489Z,10.64
2019-05-09T07:25:11.045Z,10.69
2019-05-09T07:27:39.179Z,10.78
2019-05-09T07:30:40.822Z,10.89
2019-05-09T07:33:31.747Z,10.98
2019-05-09T07:36:00.635Z,11.12
2019-05-09T07:38:30.951Z,11.24
2019-05-09T07:41:01.023Z,11.33
2019-05-09T07:43:30.303Z,11.56
2019-05-09T07:46:11.454Z,11.46
2019-05-09T07:48:50.092Z,11.51
2019-05-09T07:51:19.626Z,11.47
2019-05-09T07:53:59.089Z,11.66
2019-05-09T07:56:28.702Z,11.83
2019-05-09T07:59:00.344Z,11.76
2019-05-09T08:01:29.314Z,12.15
2019-05-09T08:03:59.148Z,12.20
2019-05-09T08:06:28.821Z,12.21
2019-05-09T08:08:58.230Z,12.03
2019-05-09T08:11:28.743Z,11.63
2019-05-09T08:13:58.125Z,11.63
2019-05-09T08:16:27.936Z,11.54
2019-05-09T08:18:57.744Z,11.61
2019-05-09T08:21:27.816Z,11.63
2019-05-09T08:23:57.851Z,11.79
2019-05-09T08:26:29.797Z,11.78
2019-05-09T08:28:58.550Z,11.56
2019-05-09T08:31:28.199Z,11.53
2019-05-09T08:33:59.307Z,11.39
2019-05-09T08:36:28.400Z,11.31
2019-05-09T08:38:58.647Z,11.61
2019-05-09T08:41:29.031Z,11.87
2019-05-09T08:43:58.488Z,12.06
2019-05-09T08:46:28.628Z,12.02
2019-05-09T08:48:57.903Z,12.10
2019-05-09T08:52:10.066Z,11.92
2019-05-09T08:54:42.745Z,11.83
2019-05-09T08:57:11.778Z,11.92
2019-05-09T08:59:40.735Z,12.08
2019-05-09T09:02:15.390Z,11.98
2019-05-09T09:04:40.392Z,12.04
2019-05-09T09:07:09.395Z,12.06
2019-05-09T09:09:40.252Z,12.12
2019-05-09T09:12:25.797Z,11.99
2019-05-09T09:14:40.753Z,11.90
2019-05-09T09:17:09.723Z,11.80
2019-05-09T09:19:38.830Z,12.05
2019-05-09T09:22:08.879Z,12.08
2019-05-09T09:24:37.980Z,12.13
2019-05-09T09:27:07.686Z,12.19
2019-05-09T09:29:37.978Z,12.18
2019-05-09T09:32:08.274Z,11.21
2019-05-09T09:34:38.109Z,11.52
2019-05-09T09:37:11.315Z,11.31
2019-05-09T09:39:44.407Z,11.58
2019-05-09T09:42:09.283Z,11.59
2019-05-09T09:44:39.300Z,11.59
2019-05-09T09:47:08.716Z,11.35
2019-05-09T09:49:38.349Z,11.34
2019-05-09T09:52:08.566Z,11.19
2019-05-09T09:54:38.697Z,11.09
2019-05-09T09:57:09.702Z,10.97
2019-05-09T09:59:44.869Z,11.02
2019-05-09T10:02:14.842Z,10.89
2019-05-09T10:04:43.954Z,10.78
2019-05-09T10:07:12.969Z,10.74
2019-05-09T10:09:41.991Z,10.82
2019-05-09T10:12:11.230Z,11.17
2019-05-09T10:14:45.244Z,11.56
2019-05-09T10:17:32.183Z,11.93
2019-05-09T10:20:18.628Z,12.07
2019-05-09T10:22:58.487Z,12.00
2019-05-09T10:25:18.493Z,12.08
2019-05-09T10:27:48.076Z,12.16
2019-05-09T10:30:18.588Z,12.44
2019-05-09T10:32:47.724Z,12.42
2019-05-09T10:35:22.988Z,12.53
2019-05-09T10:37:51.968Z,12.53
2019-05-09T10:40:24.470Z,12.88
2019-05-09T10:43:01.309Z,13.10
2019-05-09T10:45:49.317Z,13.12
2019-05-09T10:48:23.935Z,12.99
2019-05-09T10:50:53.760Z,12.31
2019-05-09T10:53:19.788Z,12.31
2019-05-09T10:55:48.700Z,12.01
2019-05-09T10:58:20.212Z,11.93
2019-05-09T11:00:48.419Z,11.98
2019-05-09T11:03:18.113Z,12.05
2019-05-09T11:05:47.239Z,12.29
2019-05-09T11:08:18.449Z,12.42
2019-05-09T11:10:47.553Z,12.68
2019-05-09T11:13:18.175Z,12.88
2019-05-09T11:15:48.009Z,12.86
2019-05-09T11:18:18.505Z,12.83
2019-05-09T11:20:47.801Z,12.73
2019-05-09T11:23:19.208Z,12.76
2019-05-09T11:25:47.355Z,12.81
2019-05-09T11:28:17.984Z,12.88
2019-05-09T11:30:47.663Z,13.06
2019-05-09T11:33:18.359Z,13.09
2019-05-09T11:35:47.968Z,13.20
2019-05-09T11:38:29.615Z,13.10
2019-05-09T11:40:48.354Z,12.89
2019-05-09T11:43:18.143Z,12.99
2019-05-09T11:45:47.922Z,13.18
2019-05-09T11:48:18.677Z,13.07
2019-05-09T11:50:47.838Z,12.98
2019-05-09T11:53:17.666Z,12.90
2019-05-09T11:55:48.272Z,12.74
2019-05-09T11:58:18.095Z,12.57
2019-05-09T12:00:48.230Z,12.48
2019-05-09T12:03:18.892Z,12.45
2019-05-09T12:05:47.924Z,12.34
2019-05-09T12:08:17.694Z,12.08
2019-05-09T12:10:46.872Z,12.01
2019-05-09T12:13:18.467Z,11.76
2019-05-09T12:15:48.943Z,11.68
2019-05-09T12:18:17.036Z,11.61
2019-05-09T12:20:48.280Z,11.47
2019-05-09T12:23:19.652Z,11.45
2019-05-09T12:25:47.049Z,11.39
2019-05-09T12:28:18.769Z,11.41
2019-05-09T12:30:48.935Z,11.42
2019-05-09T12:33:18.811Z,11.26
2019-05-09T12:35:47.936Z,11.31
2019-05-09T12:38:18.057Z,11.33
2019-05-09T12:40:48.223Z,11.29
2019-05-09T12:43:18.560Z,11.37
2019-05-09T12:45:47.966Z,11.26
2019-05-09T12:48:19.369Z,11.13
2019-05-09T12:50:48.875Z,11.13
2019-05-09T12:53:18.944Z,11.06
2019-05-09T12:55:49.637Z,11.01
2019-05-09T12:58:27.869Z,10.81
2019-05-09T13:00:58.437Z,10.78
2019-05-09T13:03:28.156Z,10.75
2019-05-09T13:05:57.676Z,10.76
2019-05-09T13:08:27.793Z,10.62
2019-05-09T13:10:58.364Z,10.68
2019-05-09T13:13:30.228Z,10.64
2019-05-09T13:16:11.953Z,10.74
2019-05-09T13:19:00.295Z,10.67
2019-05-09T13:21:29.663Z,10.81
2019-05-09T13:23:58.837Z,10.96
2019-05-09T13:26:28.789Z,10.92
2019-05-09T13:28:59.142Z,11.07
2019-05-09T13:31:29.501Z,10.88
2019-05-09T13:33:58.766Z,10.77
2019-05-09T13:36:28.629Z,10.62
2019-05-09T13:39:04.355Z,10.61
2019-05-09T13:41:28.353Z,10.79
2019-05-09T13:44:03.825Z,10.73
2019-05-09T13:46:28.410Z,10.80
2019-05-09T13:49:11.100Z,10.82
2019-05-09T13:51:28.277Z,10.78
2019-05-09T13:53:59.346Z,10.72
2019-05-09T13:56:28.125Z,10.82
2019-05-09T13:58:58.157Z,10.87
2019-05-09T14:01:27.400Z,10.94
2019-05-09T14:03:57.699Z,11.09
2019-05-09T14:06:27.741Z,10.96
2019-05-09T14:08:59.419Z,11.05
2019-05-09T14:11:29.077Z,10.99
2019-05-09T14:13:58.251Z,11.04
2019-05-09T14:16:28.764Z,11.20
2019-05-09T14:19:00.597Z,11.26
2019-05-09T14:21:29.793Z,11.33
2019-05-09T14:24:10.779Z,11.49
2019-05-09T14:26:29.639Z,11.25
2019-05-09T14:28:58.623Z,11.45
2019-05-09T14:31:32.124Z,11.42
2019-05-09T14:33:58.237Z,11.55
2019-05-09T14:36:27.790Z,11.93
2019-05-09T14:38:57.977Z,12.14
2019-05-09T14:41:27.820Z,13.08
2019-05-09T14:43:59.638Z,14.37
2019-05-09T14:46:28.482Z,14.88
2019-05-09T14:48:58.447Z,14.72
2019-05-09T14:51:28.407Z,14.70
2019-05-09T14:53:59.398Z,14.69
2019-05-09T14:56:28.475Z,14.60
2019-05-09T14:58:58.138Z,13.93
2019-05-09T15:01:28.819Z,13.90
2019-05-09T15:03:58.774Z,14.77
2019-05-09T15:06:28.376Z,14.77
2019-05-09T15:08:58.203Z,15.02
2019-05-09T15:11:28.261Z,14.70
2019-05-09T15:13:58.520Z,14.79
2019-05-09T15:16:28.391Z,14.86
2019-05-09T15:18:58.555Z,14.73
2019-05-09T15:21:27.645Z,14.62
2019-05-09T15:23:58.964Z,16.20
2019-05-09T15:26:27.698Z,16.57
2019-05-09T15:28:57.751Z,17.15
2019-05-09T15:31:28.640Z,17.66
2019-05-09T15:33:57.897Z,17.23
2019-05-09T15:36:26.729Z,17.62
2019-05-09T15:38:55.609Z,17.19
2019-05-09T15:41:24.469Z,16.45
2019-05-09T15:43:53.267Z,15.90
2019-05-09T15:46:27.866Z,16.04
2019-05-09T15:48:58.250Z,16.20
2019-05-09T15:51:27.981Z,16.24
2019-05-09T15:53:57.807Z,16.30
2019-05-09T15:56:28.828Z,16.16
2019-05-09T15:58:58.104Z,15.65
2019-05-09T16:01:27.890Z,15.64
2019-05-09T16:03:57.152Z,15.48
2019-05-09T16:06:32.622Z,15.24
2019-05-09T16:08:58.563Z,15.26
2019-05-09T16:11:28.577Z,15.15
2019-05-09T16:13:57.795Z,14.85
2019-05-09T16:16:28.648Z,14.90
2019-05-09T16:18:58.263Z,15.11
2019-05-09T16:21:27.908Z,15.15
2019-05-09T16:23:59.252Z,15.03
2019-05-09T16:26:29.091Z,14.74
2019-05-09T16:28:58.366Z,14.45
2019-05-09T16:31:27.914Z,14.36
2019-05-09T16:33:58.156Z,14.46
2019-05-09T16:36:28.166Z,14.43
2019-05-09T16:38:58.405Z,14.28
2019-05-09T16:41:28.084Z,14.13
2019-05-09T16:43:58.378Z,14.00
2019-05-09T16:46:28.640Z,13.96
2019-05-09T16:48:58.232Z,13.83
2019-05-09T16:51:28.626Z,13.73
2019-05-09T16:53:58.501Z,13.71
2019-05-09T16:56:28.695Z,13.60
2019-05-09T16:58:58.022Z,13.55
2019-05-09T17:01:28.367Z,13.48
2019-05-09T17:03:57.694Z,14.10
2019-05-09T17:06:27.497Z,14.97
2019-05-09T17:08:58.410Z,14.63
2019-05-09T17:11:27.884Z,14.47
2019-05-09T17:13:58.332Z,15.31
2019-05-09T17:16:28.507Z,14.65
2019-05-09T17:18:58.298Z,14.02
2019-05-09T17:21:42.928Z,13.69
2019-05-09T17:24:14.788Z,14.47
2019-05-09T17:26:43.796Z,15.16
2019-05-09T17:29:12.846Z,15.27
2019-05-09T17:31:41.814Z,15.37
2019-05-09T17:34:10.895Z,16.12
2019-05-09T17:36:39.790Z,16.53
2019-05-09T17:39:09.348Z,16.56
2019-05-09T17:41:38.391Z,15.61
2019-05-09T17:44:07.743Z,14.92
2019-05-09T17:46:38.595Z,14.60
2019-05-09T17:49:08.424Z,14.13
2019-05-09T17:51:37.421Z,13.94
2019-05-09T17:54:08.118Z,13.65
2019-05-09T17:56:37.928Z,13.44
2019-05-09T17:59:08.523Z,13.34
2019-05-09T18:01:37.842Z,13.22
2019-05-09T18:04:09.153Z,13.12
2019-05-09T18:06:38.087Z,13.03
2019-05-09T18:09:08.405Z,12.98
2019-05-09T18:11:37.916Z,12.90
2019-05-09T18:14:08.065Z,12.80
2019-05-09T18:16:38.967Z,12.78
2019-05-09T18:19:09.170Z,12.73
2019-05-09T18:21:49.962Z,12.68
2019-05-09T18:24:09.036Z,12.63
2019-05-09T18:26:38.356Z,12.60
2019-05-09T18:29:07.428Z,12.54
2019-05-09T18:32:07.848Z,12.44
2019-05-09T18:34:38.022Z,12.36
2019-05-09T18:37:08.032Z,12.24
2019-05-09T18:39:37.506Z,12.21
2019-05-09T18:42:08.732Z,12.11
2019-05-09T18:44:38.000Z,12.05
2019-05-09T18:47:07.848Z,12.03
2019-05-09T18:49:36.928Z,11.96
2019-05-09T18:52:05.938Z,11.85
2019-05-09T18:54:35.550Z,11.73
2019-05-09T18:57:04.549Z,11.63
2019-05-09T18:59:33.489Z,11.55
2019-05-09T19:02:02.365Z,11.55
2019-05-09T19:04:31.504Z,11.54
2019-05-09T19:07:00.496Z,11.55
2019-05-09T19:09:29.484Z,11.46
2019-05-09T19:11:58.532Z,11.42
2019-05-09T19:14:27.444Z,11.26
2019-05-09T19:17:15.203Z,11.14
2019-05-09T19:19:50.161Z,11.09
2019-05-09T19:22:22.424Z,11.09
2019-05-09T19:24:49.784Z,11.12
2019-05-09T19:27:18.778Z,11.21
2019-05-09T19:29:47.680Z,11.15
2019-05-09T19:32:16.601Z,11.13
2019-05-09T19:34:45.515Z,11.15
2019-05-09T19:37:14.531Z,11.16
2019-05-09T19:39:43.514Z,11.13
2019-05-09T19:42:12.401Z,11.13
2019-05-09T19:44:41.209Z,11.25
2019-05-09T19:47:10.143Z,11.28
2019-05-09T19:49:39.001Z,11.20
2019-05-09T19:52:08.024Z,11.14
2019-05-09T19:54:37.039Z,10.92
2019-05-09T19:57:06.143Z,11.06
2019-05-09T19:59:35.092Z,11.10
2019-05-09T20:02:04.106Z,11.14
2019-05-09T20:04:32.960Z,11.13
2019-05-09T20:07:01.926Z,11.13
2019-05-09T20:09:37.460Z,11.17
2019-05-09T20:12:28.280Z,11.23
2019-05-09T20:14:57.057Z,11.26
2019-05-09T20:17:26.053Z,11.24
2019-05-09T20:19:54.828Z,11.37
2019-05-09T20:22:23.824Z,11.42
2019-05-09T20:24:52.802Z,11.37
2019-05-09T20:27:21.725Z,11.35
2019-05-09T20:29:50.602Z,11.24
2019-05-09T20:32:19.648Z,11.20
2019-05-09T20:34:48.707Z,11.21
2019-05-09T20:37:17.556Z,11.21
2019-05-09T20:39:46.667Z,11.16
2019-05-09T20:42:15.736Z,11.13
2019-05-09T20:44:44.812Z,11.15
2019-05-09T20:47:14.060Z,11.12
2019-05-09T20:49:43.129Z,11.13
2019-05-09T20:52:12.262Z,11.08
2019-05-09T20:54:41.459Z,11.12
2019-05-09T20:57:10.547Z,11.10
2019-05-09T20:59:39.828Z,11.10
2019-05-09T21:02:09.045Z,11.04
2019-05-09T21:04:38.053Z,11.00
2019-05-09T21:07:07.312Z,10.97
2019-05-09T21:09:36.428Z,10.92
2019-05-09T21:12:05.704Z,10.78
2019-05-09T21:14:34.696Z,10.68
2019-05-09T21:17:03.827Z,10.63
2019-05-09T21:19:32.951Z,10.53
2019-05-09T21:22:01.919Z,10.45
2019-05-09T21:24:31.015Z,10.42
2019-05-09T21:27:00.009Z,10.41
2019-05-09T21:29:30.851Z,10.38
2019-05-09T21:32:00.029Z,10.29
2019-05-09T21:34:29.166Z,10.18
2019-05-09T21:36:58.240Z,10.12
2019-05-09T21:39:27.197Z,9.99
2019-05-09T21:41:56.071Z,10.03
2019-05-09T21:44:24.927Z,9.98
2019-05-09T21:46:53.765Z,10.05
2019-05-09T21:49:22.689Z,10.02
2019-05-09T21:51:51.707Z,10.15
2019-05-09T21:54:20.597Z,10.18
2019-05-09T21:56:49.623Z,10.14
2019-05-09T21:59:18.556Z,10.08
2019-05-09T22:01:47.533Z,10.03
2019-05-09T22:04:17.825Z,10.13
2019-05-09T22:06:47.136Z,10.21
2019-05-09T22:09:16.037Z,10.29
2019-05-09T22:11:45.038Z,10.37
2019-05-09T22:14:13.970Z,10.39
2019-05-09T22:16:43.617Z,10.55
2019-05-09T22:19:12.612Z,10.47
2019-05-09T22:21:41.615Z,10.51
2019-05-09T22:24:10.628Z,10.43
2019-05-09T22:26:39.590Z,10.59
2019-05-09T22:29:08.491Z,10.58
2019-05-09T22:31:37.473Z,10.54
2019-05-09T22:34:06.503Z,10.35
2019-05-09T22:36:35.508Z,10.26
2019-05-09T22:39:05.821Z,10.31
2019-05-09T22:41:34.823Z,10.34
2019-05-09T22:44:04.041Z,10.32
2019-05-09T22:46:32.924Z,10.39
2019-05-09T22:49:01.971Z,10.26
2019-05-09T22:51:30.992Z,10.18
2019-05-09T22:54:12.217Z,10.46
2019-05-09T22:56:30.703Z,10.41
2019-05-09T22:58:59.595Z,10.46
2019-05-09T23:01:28.403Z,10.31
2019-05-09T23:03:57.197Z,10.25
2019-05-09T23:06:26.099Z,10.25
2019-05-09T23:09:06.543Z,10.19
2019-05-09T23:11:35.550Z,10.30
2019-05-09T23:14:04.949Z,10.29
2019-05-09T23:16:36.473Z,10.27
2019-05-09T23:19:06.264Z,10.18
2019-05-09T23:21:35.249Z,10.11
2019-05-09T23:24:27.567Z,9.98
2019-05-09T23:26:43.398Z,9.88
2019-05-09T23:29:12.394Z,9.90
2019-05-09T23:31:56.643Z,9.88
2019-05-09T23:34:25.623Z,9.87
2019-05-09T23:36:54.485Z,9.81
2019-05-09T23:39:25.429Z,9.87
2019-05-09T23:41:54.490Z,9.78
2019-05-09T23:44:23.541Z,9.79
2019-05-09T23:46:52.497Z,9.72
2019-05-09T23:49:21.478Z,9.63
2019-05-09T23:51:50.786Z,9.65
2019-05-09T23:54:47.382Z,9.56
2019-05-09T23:57:28.154Z,9.47
